createdAt,value
2019-01-06T00:02:28.061Z,4.10
2019-01-06T00:07:39.580Z,4.00
2019-01-06T00:12:52.357Z,3.80
2019-01-06T00:18:15.255Z,3.80
2019-01-06T00:23:26.184Z,4.03
2019-01-06T00:28:33.553Z,4.50
2019-01-06T00:33:45.192Z,4.30
2019-01-06T00:38:56.077Z,4.27
2019-01-06T00:44:07.775Z,4.07
2019-01-06T00:49:19.509Z,4.30
2019-01-06T00:54:31.302Z,4.50
2019-01-06T00:59:43.794Z,4.87
2019-01-06T01:05:06.659Z,4.70
2019-01-06T01:10:28.292Z,4.40
2019-01-06T01:15:39.527Z,4.27
2019-01-06T01:20:51.988Z,4.00
2019-01-06T01:26:13.591Z,4.87
2019-01-06T01:31:24.612Z,4.60
2019-01-06T01:36:46.021Z,4.80
2019-01-06T01:42:09.319Z,4.87
2019-01-06T01:47:20.322Z,5.00
2019-01-06T01:52:41.433Z,5.13
2019-01-06T01:57:53.949Z,4.90
2019-01-06T02:03:18.367Z,5.17
2019-01-06T02:08:44.187Z,5.00
2019-01-06T02:14:08.804Z,4.80
2019-01-06T02:19:18.986Z,4.67
2019-01-06T02:24:40.643Z,4.43
2019-01-06T02:30:11.371Z,5.03
2019-01-06T02:35:24.490Z,4.43
2019-01-06T02:40:55.128Z,4.50
2019-01-06T02:45:57.541Z,5.23
2019-01-06T02:51:12.225Z,5.70
2019-01-06T02:56:23.514Z,5.57
2019-01-06T03:01:35.013Z,5.57
2019-01-06T03:06:46.285Z,5.93
2019-01-06T03:12:01.809Z,5.60
2019-01-06T03:17:17.467Z,6.10
2019-01-06T03:22:48.205Z,4.77
2019-01-06T03:27:59.401Z,5.27
2019-01-06T03:33:10.588Z,5.03
2019-01-06T03:38:36.598Z,4.90
2019-01-06T03:43:48.207Z,5.13
2019-01-06T03:48:59.632Z,5.70
2019-01-06T03:54:10.946Z,5.27
2019-01-06T03:59:35.904Z,5.07
2019-01-06T04:04:51.068Z,4.73
2019-01-06T04:10:02.418Z,5.20
2019-01-06T04:15:15.572Z,5.40
2019-01-06T04:20:28.075Z,5.30
2019-01-06T04:25:39.411Z,5.23
2019-01-06T04:30:54.401Z,5.07
2019-01-06T04:36:06.860Z,5.87
2019-01-06T04:41:34.453Z,6.03
2019-01-06T04:46:48.482Z,6.53
2019-01-06T04:52:09.763Z,6.17
2019-01-06T04:57:37.534Z,6.30
2019-01-06T05:02:48.915Z,6.13
2019-01-06T05:08:00.240Z,6.10
2019-01-06T05:13:11.607Z,5.83
2019-01-06T05:18:22.425Z,7.40
2019-01-06T05:23:37.026Z,7.27
2019-01-06T05:28:45.371Z,7.90
2019-01-06T05:33:57.892Z,8.03
2019-01-06T05:39:10.477Z,7.17
2019-01-06T05:44:22.977Z,8.30
2019-01-06T05:49:35.457Z,8.30
2019-01-06T05:54:59.902Z,7.87
2019-01-06T06:00:27.695Z,7.83
2019-01-06T06:05:49.436Z,7.90
2019-01-06T06:10:56.481Z,8.27
2019-01-06T06:16:07.774Z,7.83
2019-01-06T06:21:29.534Z,7.20
2019-01-06T06:26:40.888Z,7.13
2019-01-06T06:31:59.413Z,8.57
2019-01-06T06:37:11.974Z,7.50
2019-01-06T06:42:24.652Z,7.40
2019-01-06T06:47:36.061Z,6.73
2019-01-06T06:52:48.431Z,7.00
2019-01-06T06:58:45.025Z,6.30
2019-01-06T07:03:59.921Z,7.40
2019-01-06T07:09:15.418Z,6.87
2019-01-06T07:14:26.915Z,7.00
2019-01-06T07:19:41.830Z,7.30
2019-01-06T07:24:54.185Z,7.50
2019-01-06T07:30:06.627Z,7.63
2019-01-06T07:35:18.111Z,7.50
2019-01-06T07:40:31.059Z,7.10
2019-01-06T07:45:49.899Z,8.50
2019-01-06T07:51:14.783Z,7.70
2019-01-06T07:56:25.898Z,8.60
2019-01-06T08:01:37.287Z,10.47
2019-01-06T08:06:48.892Z,11.30
2019-01-06T08:12:07.710Z,12.67
2019-01-06T08:17:19.252Z,12.30
2019-01-06T08:22:40.783Z,12.27
2019-01-06T08:28:05.629Z,13.23
2019-01-06T08:33:16.670Z,13.17
2019-01-06T08:38:28.031Z,13.23
2019-01-06T08:43:39.391Z,13.77
2019-01-06T08:48:50.748Z,13.67
2019-01-06T08:54:09.390Z,14.80
2019-01-06T08:59:20.739Z,15.30
2019-01-06T09:04:25.707Z,15.13
2019-01-06T09:09:45.725Z,15.00
2019-01-06T09:14:51.362Z,16.07
2019-01-06T09:20:03.848Z,16.30
2019-01-06T09:25:41.015Z,16.00
2019-01-06T09:30:51.697Z,17.20
2019-01-06T09:36:03.384Z,16.73
2019-01-06T09:41:18.612Z,17.43
2019-01-06T09:46:40.060Z,17.70
2019-01-06T09:51:55.305Z,16.33
2019-01-06T09:57:06.640Z,15.97
2019-01-06T10:02:19.163Z,15.33
2019-01-06T10:07:30.507Z,14.70
2019-01-06T10:12:46.984Z,13.40
2019-01-06T10:18:17.863Z,14.47
2019-01-06T10:23:36.451Z,11.80
2019-01-06T10:28:47.630Z,10.97
2019-01-06T10:34:03.172Z,11.10
2019-01-06T10:39:27.699Z,11.83
2019-01-06T10:44:42.959Z,11.00
2019-01-06T10:50:04.650Z,11.63
2019-01-06T10:55:21.653Z,10.87
2019-01-06T11:00:33.906Z,11.23
2019-01-06T11:05:43.137Z,11.63
2019-01-06T11:10:54.304Z,10.77
2019-01-06T11:16:13.138Z,11.10
2019-01-06T11:21:32.453Z,12.03
2019-01-06T11:26:54.379Z,11.70
2019-01-06T11:32:11.136Z,11.20
2019-01-06T11:37:23.438Z,10.40
2019-01-06T11:42:34.707Z,11.60
2019-01-06T11:47:46.183Z,10.70
2019-01-06T11:52:57.522Z,11.33
2019-01-06T11:58:09.033Z,10.23
2019-01-06T12:03:31.494Z,10.57
2019-01-06T12:08:45.955Z,10.00
2019-01-06T12:13:56.695Z,9.40
2019-01-06T12:19:12.451Z,10.20
2019-01-06T12:24:31.673Z,9.53
2019-01-06T12:29:48.390Z,10.43
2019-01-06T12:35:00.586Z,10.30
2019-01-06T12:40:05.470Z,11.13
2019-01-06T12:45:16.921Z,11.53
2019-01-06T12:50:29.528Z,10.77
2019-01-06T12:55:42.015Z,11.10
2019-01-06T13:01:00.603Z,11.80
2019-01-06T13:06:25.279Z,11.37
2019-01-06T13:11:49.352Z,11.83
2019-01-06T13:17:20.470Z,13.13
2019-01-06T13:22:35.927Z,13.00
2019-01-06T13:28:02.788Z,12.77
2019-01-06T13:33:29.388Z,12.03
2019-01-06T13:38:44.714Z,12.53
2019-01-06T13:43:59.971Z,12.83
2019-01-06T13:49:30.505Z,12.90
2019-01-06T13:54:43.214Z,12.53
2019-01-06T14:00:08.061Z,13.40
2019-01-06T14:05:33.252Z,12.97
2019-01-06T14:10:45.923Z,12.70
2019-01-06T14:15:57.162Z,13.03
2019-01-06T14:21:25.384Z,13.80
2019-01-06T14:26:50.349Z,13.83
2019-01-06T14:32:15.672Z,13.30
2019-01-06T14:37:31.956Z,11.80
2019-01-06T14:42:49.431Z,14.10
2019-01-06T14:47:52.381Z,13.17
2019-01-06T14:53:05.187Z,13.00
2019-01-06T14:58:33.055Z,11.97
2019-01-06T15:04:12.103Z,12.63
2019-01-06T15:09:23.944Z,11.93
2019-01-06T15:14:42.699Z,13.90
2019-01-06T15:19:54.136Z,13.33
2019-01-06T15:25:09.413Z,12.10
2019-01-06T15:30:36.115Z,11.03
2019-01-06T15:35:46.650Z,11.83
2019-01-06T15:41:01.715Z,11.97
2019-01-06T15:46:12.765Z,11.33
2019-01-06T15:51:30.880Z,11.40
2019-01-06T15:56:40.283Z,11.47
2019-01-06T16:02:10.885Z,11.13
2019-01-06T16:07:26.266Z,11.97
2019-01-06T16:12:37.420Z,10.70
2019-01-06T16:17:49.978Z,11.13
2019-01-06T16:23:01.860Z,11.67
2019-01-06T16:28:12.880Z,11.73
2019-01-06T16:33:34.509Z,11.43
2019-01-06T16:38:45.989Z,11.50
2019-01-06T16:44:05.283Z,11.73
2019-01-06T16:49:27.093Z,12.77
2019-01-06T16:54:42.839Z,13.23
2019-01-06T16:59:55.397Z,13.10
2019-01-06T17:05:08.018Z,12.17
2019-01-06T17:10:17.669Z,14.73
2019-01-06T17:15:42.447Z,14.40
2019-01-06T17:20:46.421Z,14.57
2019-01-06T17:26:03.638Z,13.17
2019-01-06T17:31:14.980Z,13.63
2019-01-06T17:36:26.295Z,14.50
2019-01-06T17:41:49.264Z,15.40
2019-01-06T17:47:00.504Z,15.67
2019-01-06T17:52:19.288Z,16.03
2019-01-06T17:57:47.225Z,15.10
2019-01-06T18:02:58.610Z,15.70
2019-01-06T18:08:10.138Z,16.80
2019-01-06T18:13:21.570Z,15.70
2019-01-06T18:18:32.559Z,16.93
2019-01-06T18:23:51.177Z,16.83
2019-01-06T18:29:18.717Z,16.87
2019-01-06T18:34:37.406Z,15.77
2019-01-06T18:39:48.642Z,15.63
2019-01-06T18:45:13.483Z,15.67
2019-01-06T18:50:30.192Z,17.13
2019-01-06T18:55:41.419Z,16.40
2019-01-06T19:00:48.209Z,16.47
2019-01-06T19:05:57.995Z,16.97
2019-01-06T19:11:09.377Z,16.90
2019-01-06T19:16:35.590Z,17.30
2019-01-06T19:21:51.014Z,17.13
2019-01-06T19:27:15.638Z,17.57
2019-01-06T19:32:31.532Z,15.87
2019-01-06T19:37:55.522Z,15.23
2019-01-06T19:43:15.073Z,15.40
2019-01-06T19:48:40.898Z,14.27
2019-01-06T19:53:52.377Z,13.30
2019-01-06T19:59:17.554Z,13.67
2019-01-06T20:04:33.756Z,12.67
2019-01-06T20:09:37.684Z,13.77
2019-01-06T20:14:46.176Z,13.67
2019-01-06T20:20:07.441Z,12.60
2019-01-06T20:25:19.058Z,13.80
2019-01-06T20:30:31.641Z,12.60
2019-01-06T20:35:44.385Z,13.30
2019-01-06T20:40:55.821Z,12.67
2019-01-06T20:46:23.813Z,13.43
2019-01-06T20:51:46.767Z,13.63
2019-01-06T20:56:57.912Z,13.27
2019-01-06T21:02:10.540Z,14.23
2019-01-06T21:07:35.291Z,14.13
2019-01-06T21:12:47.852Z,14.50
2019-01-06T21:18:00.855Z,15.10
2019-01-06T21:23:15.045Z,15.80
2019-01-06T21:28:37.640Z,16.03
2019-01-06T21:33:42.620Z,16.70
2019-01-06T21:38:57.185Z,17.30
2019-01-06T21:44:09.328Z,16.97
2019-01-06T21:49:27.520Z,16.63
2019-01-06T21:54:42.502Z,17.50
2019-01-06T21:59:58.315Z,17.33
2019-01-06T22:05:11.404Z,19.63
2019-01-06T22:10:24.616Z,18.00
2019-01-06T22:15:51.203Z,18.57
2019-01-06T22:21:02.811Z,17.50
2019-01-06T22:26:09.496Z,17.73
2019-01-06T22:31:30.719Z,17.37
2019-01-06T22:36:43.207Z,19.03
2019-01-06T22:42:13.607Z,17.83
2019-01-06T22:47:30.267Z,18.07
2019-01-06T22:52:50.931Z,19.47
2019-01-06T22:58:11.626Z,16.40
2019-01-06T23:03:24.670Z,16.40
2019-01-06T23:08:40.337Z,16.33
2019-01-06T23:14:06.447Z,16.80
2019-01-06T23:19:29.059Z,19.40
2019-01-06T23:24:40.202Z,17.50
2019-01-06T23:30:02.368Z,17.87
2019-01-06T23:35:17.599Z,18.50
2019-01-06T23:40:28.986Z,17.93
2019-01-06T23:45:47.492Z,18.47
2019-01-06T23:51:15.300Z,19.33
2019-01-06T23:56:34.570Z,19.93
